createdAt,value
2018-09-25T00:02:31.631Z,70.62
2018-09-25T00:05:05.008Z,70.18
2018-09-25T00:07:38.494Z,70.43
2018-09-25T00:10:11.892Z,70.39
2018-09-25T00:12:45.341Z,70.44
2018-09-25T00:15:18.844Z,70.25
2018-09-25T00:17:52.373Z,70.37
2018-09-25T00:20:25.788Z,70.91
2018-09-25T00:22:59.344Z,70.64
2018-09-25T00:25:32.859Z,70.15
2018-09-25T00:28:06.360Z,70.96
2018-09-25T00:30:39.730Z,70.87
2018-09-25T00:33:13.112Z,71.33
2018-09-25T00:35:46.617Z,70.54
2018-09-25T00:38:19.992Z,71.16
2018-09-25T00:40:53.295Z,71.76
2018-09-25T00:43:26.652Z,71.04
2018-09-25T00:46:00.203Z,71.46
2018-09-25T00:48:33.704Z,71.01
2018-09-25T00:51:07.012Z,71.42
2018-09-25T00:53:40.535Z,71.94
2018-09-25T00:56:13.940Z,71.13
2018-09-25T00:58:47.368Z,72.06
2018-09-25T01:01:20.872Z,71.41
2018-09-25T01:03:54.364Z,72.13
2018-09-25T01:06:27.873Z,72.24
2018-09-25T01:09:01.448Z,72.15
2018-09-25T01:11:34.984Z,71.61
2018-09-25T01:14:08.483Z,71.41
2018-09-25T01:16:41.936Z,71.82
2018-09-25T01:19:15.501Z,71.98
2018-09-25T01:21:48.820Z,71.57
2018-09-25T01:24:22.168Z,72.33
2018-09-25T01:26:55.624Z,71.43
2018-09-25T01:29:29.148Z,71.44
2018-09-25T01:32:02.660Z,71.42
2018-09-25T01:34:36.159Z,71.38
2018-09-25T01:37:16.616Z,71.49
2018-09-25T01:39:50.209Z,72.10
2018-09-25T01:42:23.699Z,71.68
2018-09-25T01:44:57.339Z,71.34
2018-09-25T01:47:30.833Z,71.83
2018-09-25T01:50:04.207Z,71.87
2018-09-25T01:52:37.653Z,72.20
2018-09-25T01:55:11.080Z,71.73
2018-09-25T01:57:44.460Z,71.92
2018-09-25T02:00:17.973Z,71.79
2018-09-25T02:02:51.584Z,71.99
2018-09-25T02:05:25.132Z,71.74
2018-09-25T02:07:58.653Z,71.62
2018-09-25T02:10:32.145Z,71.89
2018-09-25T02:13:05.656Z,71.88
2018-09-25T02:15:39.175Z,72.11
2018-09-25T02:18:12.604Z,72.56
2018-09-25T02:20:45.984Z,72.25
2018-09-25T02:23:19.412Z,72.56
2018-09-25T02:25:52.932Z,72.16
2018-09-25T02:28:26.445Z,72.26
2018-09-25T02:30:59.911Z,71.97
2018-09-25T02:33:33.443Z,71.62
2018-09-25T02:36:06.827Z,71.74
2018-09-25T02:38:40.332Z,72.00
2018-09-25T02:41:13.704Z,72.22
2018-09-25T02:43:47.313Z,71.87
2018-09-25T02:46:20.836Z,72.01
2018-09-25T02:48:54.288Z,71.87
2018-09-25T02:51:34.599Z,72.25
2018-09-25T02:54:08.039Z,72.20
2018-09-25T02:56:41.444Z,71.91
2018-09-25T02:59:14.804Z,72.26
2018-09-25T03:01:48.383Z,72.60
2018-09-25T03:04:21.783Z,72.16
2018-09-25T03:06:55.256Z,72.48
2018-09-25T03:09:28.611Z,72.15
2018-09-25T03:12:01.982Z,72.67
2018-09-25T03:14:35.395Z,72.49
2018-09-25T03:17:08.792Z,72.23
2018-09-25T03:19:42.181Z,73.18
2018-09-25T03:22:15.573Z,72.52
2018-09-25T03:24:49.103Z,72.66
2018-09-25T03:27:22.633Z,72.68
2018-09-25T03:29:56.189Z,72.64
2018-09-25T03:32:29.573Z,72.71
2018-09-25T03:35:03.040Z,72.75
2018-09-25T03:37:36.512Z,72.49
2018-09-25T03:40:09.828Z,73.23
2018-09-25T03:42:43.271Z,72.63
2018-09-25T03:45:16.652Z,73.47
2018-09-25T03:47:50.057Z,73.52
2018-09-25T03:50:23.680Z,73.58
2018-09-25T03:52:57.228Z,72.74
2018-09-25T03:55:30.636Z,73.37
2018-09-25T03:58:04.036Z,72.60
2018-09-25T04:00:37.452Z,72.80
2018-09-25T04:03:10.871Z,72.74
2018-09-25T04:05:44.224Z,72.99
2018-09-25T04:08:17.754Z,72.80
2018-09-25T04:10:51.355Z,73.04
2018-09-25T04:13:24.880Z,73.58
2018-09-25T04:15:58.367Z,73.86
2018-09-25T04:18:31.785Z,73.31
2018-09-25T04:21:05.320Z,73.25
2018-09-25T04:23:38.847Z,73.36
2018-09-25T04:26:12.355Z,72.74
2018-09-25T04:28:45.648Z,73.06
2018-09-25T04:31:19.140Z,73.80
2018-09-25T04:33:52.503Z,73.48
2018-09-25T04:36:26.012Z,73.78
2018-09-25T04:38:59.541Z,72.97
2018-09-25T04:41:32.892Z,72.94
2018-09-25T04:44:06.397Z,72.81
2018-09-25T04:46:39.737Z,73.44
2018-09-25T04:49:13.216Z,73.32
2018-09-25T04:51:46.780Z,73.76
2018-09-25T04:54:20.148Z,73.05
2018-09-25T04:56:53.515Z,73.39
2018-09-25T04:59:26.860Z,72.99
2018-09-25T05:02:00.280Z,73.64
2018-09-25T05:04:33.850Z,73.33
2018-09-25T05:07:07.363Z,73.53
2018-09-25T05:09:40.720Z,73.78
2018-09-25T05:12:14.355Z,73.00
2018-09-25T05:14:47.865Z,73.31
2018-09-25T05:17:21.373Z,73.33
2018-09-25T05:19:54.920Z,73.46
2018-09-25T05:22:28.448Z,73.34
2018-09-25T05:25:01.841Z,73.63
2018-09-25T05:27:35.181Z,74.09
2018-09-25T05:30:08.736Z,73.87
2018-09-25T05:32:42.132Z,73.67
2018-09-25T05:35:15.668Z,73.31
2018-09-25T05:37:49.168Z,73.85
2018-09-25T05:40:22.629Z,74.04
2018-09-25T05:42:56.163Z,73.52
2018-09-25T05:45:29.600Z,74.20
2018-09-25T05:48:03.243Z,73.64
2018-09-25T05:50:36.608Z,73.60
2018-09-25T05:53:10.210Z,73.66
2018-09-25T05:55:43.614Z,73.82
2018-09-25T05:58:16.915Z,74.23
2018-09-25T06:00:50.552Z,74.13
2018-09-25T06:03:24.026Z,74.04
2018-09-25T06:05:57.535Z,74.55
2018-09-25T06:08:31.025Z,74.54
2018-09-25T06:11:04.404Z,73.76
2018-09-25T06:13:37.910Z,74.61
2018-09-25T06:16:11.371Z,74.21
2018-09-25T06:18:44.876Z,74.26
2018-09-25T06:21:18.376Z,73.82
2018-09-25T06:23:51.945Z,73.75
2018-09-25T06:26:25.327Z,73.84
2018-09-25T06:28:58.904Z,74.08
2018-09-25T06:31:32.285Z,73.65
2018-09-25T06:34:05.701Z,73.41
2018-09-25T06:36:39.212Z,74.26
2018-09-25T06:39:13.887Z,74.53
2018-09-25T06:41:47.317Z,74.32
2018-09-25T06:44:20.735Z,73.38
2018-09-25T06:46:54.120Z,73.58
2018-09-25T06:49:27.472Z,73.99
2018-09-25T06:52:00.800Z,72.36
2018-09-25T06:54:34.232Z,73.07
2018-09-25T06:57:07.713Z,72.11
2018-09-25T06:59:41.136Z,71.19
2018-09-25T07:02:14.492Z,70.67
2018-09-25T07:04:48.044Z,70.03
2018-09-25T07:07:21.598Z,68.73
2018-09-25T07:09:55.223Z,68.33
2018-09-25T07:12:28.664Z,66.76
2018-09-25T07:15:02.221Z,66.02
2018-09-25T07:17:35.831Z,65.17
2018-09-25T07:20:09.292Z,64.40
2018-09-25T07:22:42.867Z,62.77
2018-09-25T07:25:16.354Z,61.75
2018-09-25T07:27:49.776Z,61.23
2018-09-25T07:30:23.124Z,60.07
2018-09-25T07:32:56.461Z,60.01
2018-09-25T07:35:30.000Z,57.25
2018-09-25T07:38:03.494Z,57.57
2018-09-25T07:40:36.988Z,57.04
2018-09-25T07:43:10.546Z,56.08
2018-09-25T07:45:43.916Z,55.50
2018-09-25T07:48:17.505Z,54.71
2018-09-25T07:50:50.841Z,54.44
2018-09-25T07:53:24.457Z,52.49
2018-09-25T07:55:57.849Z,51.69
2018-09-25T07:58:31.329Z,52.19
2018-09-25T08:01:04.705Z,51.09
2018-09-25T08:03:38.338Z,50.42
2018-09-25T08:06:11.886Z,51.14
2018-09-25T08:08:45.402Z,49.84
2018-09-25T08:11:18.895Z,49.97
2018-09-25T08:13:52.478Z,49.29
2018-09-25T08:16:25.858Z,48.15
2018-09-25T08:18:59.380Z,48.25
2018-09-25T08:21:32.856Z,47.08
2018-09-25T08:24:06.349Z,46.51
2018-09-25T08:26:39.774Z,45.90
2018-09-25T08:29:13.171Z,45.75
2018-09-25T08:31:46.524Z,45.32
2018-09-25T08:34:19.907Z,45.68
2018-09-25T08:36:53.407Z,45.69
2018-09-25T08:39:26.930Z,46.39
2018-09-25T08:42:00.312Z,44.93
2018-09-25T08:44:33.820Z,46.04
2018-09-25T08:47:07.274Z,45.46
2018-09-25T08:49:40.677Z,45.50
2018-09-25T08:52:14.024Z,45.34
2018-09-25T08:54:47.452Z,45.06
2018-09-25T08:57:20.952Z,45.21
2018-09-25T08:59:54.441Z,44.72
2018-09-25T09:02:27.997Z,44.85
2018-09-25T09:05:01.591Z,44.83
2018-09-25T09:07:34.948Z,44.79
2018-09-25T09:10:08.327Z,45.09
2018-09-25T09:12:41.877Z,44.86
2018-09-25T09:15:15.351Z,45.00
2018-09-25T09:17:48.878Z,45.31
2018-09-25T09:20:22.284Z,44.49
2018-09-25T09:22:55.864Z,44.17
2018-09-25T09:25:29.477Z,44.14
2018-09-25T09:28:02.807Z,44.41
2018-09-25T09:30:36.152Z,44.74
2018-09-25T09:33:09.648Z,44.85
2018-09-25T09:35:43.137Z,47.58
2018-09-25T09:38:16.508Z,45.31
2018-09-25T09:40:49.901Z,44.92
2018-09-25T09:43:23.508Z,44.18
2018-09-25T09:45:57.066Z,44.47
2018-09-25T09:48:30.411Z,44.56
2018-09-25T09:51:03.952Z,43.47
2018-09-25T09:53:37.481Z,43.47
2018-09-25T09:56:10.933Z,42.40
2018-09-25T09:58:44.449Z,42.65
2018-09-25T10:01:17.912Z,42.23
2018-09-25T10:03:51.479Z,42.32
2018-09-25T10:06:24.937Z,41.39
2018-09-25T10:08:58.501Z,41.46
2018-09-25T10:11:32.051Z,40.07
2018-09-25T10:14:05.469Z,40.19
2018-09-25T10:16:38.984Z,39.71
2018-09-25T10:19:12.512Z,39.28
2018-09-25T10:21:53.130Z,39.12
2018-09-25T10:24:26.608Z,38.98
2018-09-25T10:27:00.148Z,38.07
2018-09-25T10:29:33.612Z,38.02
2018-09-25T10:32:07.139Z,37.87
2018-09-25T10:34:40.576Z,37.47
2018-09-25T10:37:14.061Z,36.87
2018-09-25T10:39:47.428Z,36.33
2018-09-25T10:42:20.921Z,36.09
2018-09-25T10:44:54.487Z,36.10
2018-09-25T10:47:28.043Z,35.96
2018-09-25T10:50:01.564Z,35.97
2018-09-25T10:52:35.072Z,35.38
2018-09-25T10:55:08.625Z,35.22
2018-09-25T10:57:42.227Z,35.09
2018-09-25T11:00:15.736Z,34.65
2018-09-25T11:02:49.187Z,34.72
2018-09-25T11:05:22.457Z,34.81
2018-09-25T11:07:55.992Z,34.37
2018-09-25T11:10:29.492Z,34.55
2018-09-25T11:13:02.972Z,34.97
2018-09-25T11:15:36.503Z,34.65
2018-09-25T11:18:09.984Z,34.50
2018-09-25T11:20:43.575Z,34.73
2018-09-25T11:23:17.070Z,35.05
2018-09-25T11:25:50.589Z,34.97
2018-09-25T11:28:24.168Z,35.30
2018-09-25T11:30:57.541Z,35.42
2018-09-25T11:33:31.020Z,35.09
2018-09-25T11:36:04.400Z,35.47
2018-09-25T11:38:37.949Z,35.54
2018-09-25T11:41:11.507Z,35.47
2018-09-25T11:43:44.857Z,35.34
2018-09-25T11:46:18.286Z,35.35
2018-09-25T11:48:51.852Z,35.89
2018-09-25T11:51:25.344Z,35.60
2018-09-25T11:53:58.881Z,35.69
2018-09-25T11:56:32.381Z,35.92
2018-09-25T11:59:05.900Z,34.94
2018-09-25T12:01:39.332Z,34.83
2018-09-25T12:04:12.684Z,34.81
2018-09-25T12:06:46.205Z,35.33
2018-09-25T12:09:19.673Z,35.86
2018-09-25T12:11:53.071Z,35.48
2018-09-25T12:14:26.599Z,34.97
2018-09-25T12:17:00.000Z,35.26
2018-09-25T12:19:33.588Z,35.41
2018-09-25T12:22:06.976Z,34.77
2018-09-25T12:24:40.469Z,34.24
2018-09-25T12:27:13.860Z,34.24
2018-09-25T12:29:47.292Z,34.15
2018-09-25T12:32:20.839Z,34.23
2018-09-25T12:34:54.352Z,33.81
2018-09-25T12:37:27.909Z,34.07
2018-09-25T12:40:01.480Z,34.21
2018-09-25T12:42:34.951Z,34.17
2018-09-25T12:45:08.364Z,34.53
2018-09-25T12:47:41.898Z,34.42
2018-09-25T12:50:15.472Z,34.24
2018-09-25T12:52:49.072Z,34.30
2018-09-25T12:55:22.453Z,34.37
2018-09-25T12:57:55.976Z,33.35
2018-09-25T13:00:29.381Z,33.30
2018-09-25T13:03:02.804Z,33.23
2018-09-25T13:05:36.346Z,33.36
2018-09-25T13:08:09.709Z,32.66
2018-09-25T13:10:43.120Z,32.67
2018-09-25T13:13:16.689Z,33.25
2018-09-25T13:15:50.376Z,33.74
2018-09-25T13:18:23.808Z,34.14
2018-09-25T13:20:57.366Z,34.38
2018-09-25T13:23:30.683Z,34.39
2018-09-25T13:26:04.089Z,34.37
2018-09-25T13:28:37.461Z,35.00
2018-09-25T13:31:10.875Z,34.40
2018-09-25T13:33:44.296Z,34.33
2018-09-25T13:36:17.601Z,34.14
2018-09-25T13:38:50.935Z,34.49
2018-09-25T13:41:24.314Z,35.25
2018-09-25T13:43:57.788Z,34.99
2018-09-25T13:46:31.122Z,35.07
2018-09-25T13:49:04.596Z,34.98
2018-09-25T13:51:38.024Z,34.94
2018-09-25T13:54:11.422Z,35.55
2018-09-25T13:56:44.955Z,35.14
2018-09-25T13:59:18.477Z,35.44
2018-09-25T14:01:52.059Z,35.64
2018-09-25T14:04:25.439Z,35.28
2018-09-25T14:06:58.816Z,35.52
2018-09-25T14:09:32.418Z,35.15
2018-09-25T14:12:05.797Z,34.96
2018-09-25T14:14:39.224Z,35.57
2018-09-25T14:17:12.841Z,35.38
2018-09-25T14:19:46.172Z,35.17
2018-09-25T14:22:19.752Z,35.83
2018-09-25T14:24:53.316Z,35.96
2018-09-25T14:27:26.831Z,35.72
2018-09-25T14:30:00.307Z,35.88
2018-09-25T14:32:33.828Z,36.31
2018-09-25T14:35:07.288Z,36.47
2018-09-25T14:37:40.689Z,36.61
2018-09-25T14:40:14.320Z,36.93
2018-09-25T14:42:47.693Z,36.82
2018-09-25T14:45:21.116Z,36.94
2018-09-25T14:47:54.681Z,36.50
2018-09-25T14:50:28.090Z,37.16
2018-09-25T14:53:01.486Z,37.25
2018-09-25T14:55:34.888Z,36.79
2018-09-25T14:58:08.264Z,36.77
2018-09-25T15:00:41.844Z,37.08
2018-09-25T15:03:15.296Z,37.53
2018-09-25T15:05:48.648Z,37.68
2018-09-25T15:08:22.050Z,37.43
2018-09-25T15:10:55.481Z,38.22
2018-09-25T15:13:29.032Z,38.28
2018-09-25T15:16:02.436Z,38.32
2018-09-25T15:18:35.941Z,38.25
2018-09-25T15:21:09.337Z,38.75
2018-09-25T15:23:42.949Z,38.40
2018-09-25T15:26:16.489Z,38.71
2018-09-25T15:28:49.883Z,38.79
2018-09-25T15:31:23.383Z,38.84
2018-09-25T15:33:56.933Z,38.96
2018-09-25T15:36:30.266Z,39.14
2018-09-25T15:39:03.617Z,39.91
2018-09-25T15:41:36.982Z,39.72
2018-09-25T15:44:10.372Z,40.34
2018-09-25T15:46:43.876Z,39.93
2018-09-25T15:49:17.403Z,40.05
2018-09-25T15:51:50.840Z,40.35
2018-09-25T15:54:24.305Z,41.38
2018-09-25T15:56:57.673Z,41.41
2018-09-25T15:59:31.164Z,41.25
2018-09-25T16:02:04.604Z,41.59
2018-09-25T16:04:37.968Z,41.92
2018-09-25T16:07:11.784Z,42.04
2018-09-25T16:09:45.388Z,42.31
2018-09-25T16:12:18.979Z,42.49
2018-09-25T16:14:52.585Z,42.96
2018-09-25T16:17:25.995Z,43.23
2018-09-25T16:19:59.341Z,43.16
2018-09-25T16:22:32.849Z,43.56
2018-09-25T16:25:06.422Z,43.56
2018-09-25T16:27:39.861Z,44.18
2018-09-25T16:30:13.401Z,43.84
2018-09-25T16:32:46.781Z,44.55
2018-09-25T16:35:20.241Z,44.53
2018-09-25T16:37:53.853Z,44.91
2018-09-25T16:40:27.364Z,44.96
2018-09-25T16:43:00.801Z,45.34
2018-09-25T16:45:34.321Z,45.71
2018-09-25T16:48:07.709Z,45.91
2018-09-25T16:50:41.237Z,46.09
2018-09-25T16:53:14.733Z,46.31
2018-09-25T16:55:48.285Z,47.58
2018-09-25T16:58:21.676Z,48.02
2018-09-25T17:04:01.400Z,48.73
2018-09-25T17:06:34.826Z,49.11
2018-09-25T17:09:08.180Z,49.13
2018-09-25T17:11:41.657Z,49.10
2018-09-25T17:14:15.101Z,49.64
2018-09-25T17:16:48.596Z,50.55
2018-09-25T17:19:22.013Z,50.36
2018-09-25T17:21:55.436Z,50.47
2018-09-25T17:24:29.079Z,51.49
2018-09-25T17:27:02.615Z,51.73
2018-09-25T17:29:36.152Z,52.09
2018-09-25T17:32:09.757Z,52.41
2018-09-25T17:34:43.340Z,52.29
2018-09-25T17:37:16.680Z,52.50
2018-09-25T17:39:50.113Z,53.03
2018-09-25T17:42:23.513Z,53.12
2018-09-25T17:44:56.914Z,53.49
2018-09-25T17:47:30.317Z,54.07
2018-09-25T17:50:03.824Z,54.11
2018-09-25T17:52:37.429Z,54.04
2018-09-25T17:55:10.808Z,54.31
2018-09-25T17:57:44.184Z,54.52
2018-09-25T18:00:17.645Z,54.72
2018-09-25T18:02:51.028Z,55.17
2018-09-25T18:05:24.446Z,55.68
2018-09-25T18:07:57.996Z,55.64
2018-09-25T18:10:31.381Z,55.83
2018-09-25T18:13:04.906Z,61.77
2018-09-25T18:15:38.437Z,56.46
2018-09-25T18:18:11.436Z,56.00
2018-09-25T18:20:44.792Z,56.23
2018-09-25T18:23:18.258Z,56.40
2018-09-25T18:25:51.573Z,56.65
2018-09-25T18:28:24.922Z,56.83
2018-09-25T18:30:58.381Z,56.49
2018-09-25T18:33:31.953Z,57.02
2018-09-25T18:36:05.276Z,57.15
2018-09-25T18:38:38.620Z,57.04
2018-09-25T18:41:11.993Z,57.54
2018-09-25T18:43:45.590Z,57.26
2018-09-25T18:46:18.949Z,57.37
2018-09-25T18:48:52.516Z,57.68
2018-09-25T18:51:25.849Z,57.74
2018-09-25T18:53:59.328Z,57.79
2018-09-25T18:56:32.734Z,58.14
2018-09-25T18:59:06.128Z,58.20
2018-09-25T19:01:39.464Z,58.65
2018-09-25T19:04:13.022Z,58.90
2018-09-25T19:06:46.492Z,58.99
2018-09-25T19:09:19.997Z,58.98
2018-09-25T19:11:53.524Z,58.77
2018-09-25T19:14:27.050Z,59.23
2018-09-25T19:17:00.781Z,59.51
2018-09-25T19:19:34.132Z,59.47
2018-09-25T19:22:07.693Z,59.64
2018-09-25T19:24:41.217Z,59.59
2018-09-25T19:27:14.617Z,60.43
2018-09-25T19:29:48.000Z,60.67
2018-09-25T19:32:21.551Z,60.41
2018-09-25T19:34:54.892Z,60.86
2018-09-25T19:37:28.412Z,60.68
2018-09-25T19:40:01.953Z,60.81
2018-09-25T19:42:35.521Z,61.41
2018-09-25T19:45:08.959Z,61.84
2018-09-25T19:47:42.276Z,61.35
2018-09-25T19:50:15.736Z,61.89
2018-09-25T19:52:49.169Z,62.16
2018-09-25T19:55:22.495Z,61.64
2018-09-25T19:57:56.005Z,62.16
2018-09-25T20:00:29.357Z,62.31
2018-09-25T20:03:02.761Z,62.99
2018-09-25T20:05:36.273Z,62.36
2018-09-25T20:08:09.669Z,62.82
2018-09-25T20:10:42.992Z,62.83
2018-09-25T20:13:16.384Z,63.16
2018-09-25T20:15:49.900Z,63.27
2018-09-25T20:18:23.479Z,63.01
2018-09-25T20:20:56.840Z,63.18
2018-09-25T20:23:30.232Z,63.09
2018-09-25T20:26:03.584Z,63.24
2018-09-25T20:28:37.008Z,63.27
2018-09-25T20:31:10.436Z,63.29
2018-09-25T20:33:43.964Z,63.73
2018-09-25T20:36:17.316Z,64.02
2018-09-25T20:38:50.632Z,63.81
2018-09-25T20:41:23.975Z,63.93
2018-09-25T20:43:57.464Z,64.51
2018-09-25T20:46:30.909Z,64.73
2018-09-25T20:49:04.452Z,64.51
2018-09-25T20:51:37.841Z,63.82
2018-09-25T20:54:11.253Z,64.88
2018-09-25T20:56:44.649Z,64.47
2018-09-25T20:59:18.233Z,64.86
2018-09-25T21:01:51.739Z,64.82
2018-09-25T21:04:25.053Z,65.04
2018-09-25T21:06:58.485Z,64.92
2018-09-25T21:09:31.861Z,65.12
2018-09-25T21:12:05.422Z,64.87
2018-09-25T21:14:38.739Z,65.26
2018-09-25T21:17:12.418Z,64.64
2018-09-25T21:19:45.882Z,64.97
2018-09-25T21:22:19.328Z,64.35
2018-09-25T21:24:52.730Z,64.33
2018-09-25T21:27:26.353Z,64.35
2018-09-25T21:29:59.680Z,64.38
2018-09-25T21:32:33.132Z,64.57
2018-09-25T21:35:06.467Z,63.61
2018-09-25T21:37:39.992Z,63.69
2018-09-25T21:40:13.490Z,63.99
2018-09-25T21:42:46.996Z,63.75
2018-09-25T21:45:20.628Z,63.30
2018-09-25T21:47:53.980Z,63.18
2018-09-25T21:50:27.464Z,62.96
2018-09-25T21:53:00.889Z,62.81
2018-09-25T21:55:34.319Z,63.04
2018-09-25T21:58:07.745Z,62.27
2018-09-25T22:00:41.222Z,62.71
2018-09-25T22:03:14.721Z,62.59
2018-09-25T22:05:48.204Z,61.91
2018-09-25T22:08:21.576Z,62.44
2018-09-25T22:10:54.913Z,61.91
2018-09-25T22:13:28.364Z,61.96
2018-09-25T22:16:01.864Z,62.34
2018-09-25T22:18:35.415Z,61.72
2018-09-25T22:21:08.750Z,61.91
2018-09-25T22:23:42.153Z,62.43
2018-09-25T22:26:15.680Z,61.88
2018-09-25T22:28:49.180Z,61.59
2018-09-25T22:31:22.557Z,61.52
2018-09-25T22:33:56.198Z,61.77
2018-09-25T22:36:29.760Z,61.25
2018-09-25T22:39:03.412Z,61.75
2018-09-25T22:41:36.975Z,61.54
2018-09-25T22:44:10.467Z,61.36
2018-09-25T22:46:43.982Z,61.19
2018-09-25T22:49:17.577Z,60.95
2018-09-25T22:51:50.908Z,61.04
2018-09-25T22:54:24.460Z,61.47
2018-09-25T22:56:57.767Z,61.64
2018-09-25T22:59:31.112Z,61.02
2018-09-25T23:02:04.441Z,61.61
2018-09-25T23:04:37.821Z,61.42
2018-09-25T23:07:11.181Z,61.27
2018-09-25T23:09:44.505Z,61.67
2018-09-25T23:12:17.987Z,61.73
2018-09-25T23:14:51.380Z,61.17
2018-09-25T23:17:24.716Z,61.69
2018-09-25T23:19:58.163Z,61.30
2018-09-25T23:22:31.595Z,61.30
2018-09-25T23:25:05.045Z,61.33
2018-09-25T23:27:38.603Z,61.12
2018-09-25T23:30:12.076Z,61.63
2018-09-25T23:32:45.610Z,61.06
2018-09-25T23:35:18.952Z,61.18
2018-09-25T23:37:52.337Z,61.55
2018-09-25T23:40:25.656Z,61.55
2018-09-25T23:42:59.168Z,61.32
2018-09-25T23:45:34.366Z,61.20
2018-09-25T23:48:06.588Z,61.73
2018-09-25T23:50:37.735Z,61.55
2018-09-25T23:53:09.684Z,61.19
2018-09-25T23:55:44.838Z,61.68
2018-09-25T23:59:20.884Z,61.30
